Time;durP1;ratioP1;P1;durP2;ratioP2;P2;SDS_P1;SDS_P2;PMS_P1;PMS_P2;Temp;Humidity;BMP_temperature;BMP_pressure;BME280_temperature;BME280_humidity;BME280_pressure;Samples;Min_cycle;Max_cycle;Signal;HPM_P1;HPM_P2
2021/10/04 00:01:31;;;;;;;2.72;1.25;;;;;;;;;;10487979;28;20164;-69
2021/10/04 00:06:56;;;;;;;2.38;1.40;;;;;;;;;;10477600;28;20523;-70
2021/10/04 00:12:17;;;;;;;3.90;1.73;;;;;;;;;;10486656;28;20090;-70
2021/10/04 00:17:39;;;;;;;4.75;1.85;;;;;;;;;;10484477;28;20037;-68
2021/10/04 00:22:42;;;;;;;;;;;;;;;;;;10484638;28;20125;-66
2021/10/04 00:27:46;;;;;;;3.10;1.80;;;;;;;;;;10486893;28;19924;-71
2021/10/04 00:32:50;;;;;;;3.17;1.70;;;;;;;;;;10485205;28;20178;-69
2021/10/04 00:37:53;;;;;;;;;;;;;;;;;;10484630;28;20098;-67
2021/10/04 00:42:57;;;;;;;5.22;1.85;;;;;;;;;;10483715;28;19928;-69
2021/10/04 00:48:00;;;;;;;2.42;1.70;;;;;;;;;;10481479;28;20207;-70
2021/10/04 00:53:03;;;;;;;3.00;1.70;;;;;;;;;;10482306;28;20043;-71
2021/10/04 00:58:07;;;;;;;2.63;1.63;;;;;;;;;;10483592;28;20068;-71
2021/10/04 01:03:10;;;;;;;4.38;1.75;;;;;;;;;;10479461;28;20515;-71
2021/10/04 01:08:13;;;;;;;4.03;1.70;;;;;;;;;;10485174;28;20565;-70
2021/10/04 01:13:37;;;;;;;2.80;1.70;;;;;;;;;;10483912;28;20046;-70
2021/10/04 01:19:01;;;;;;;3.22;1.50;;;;;;;;;;10485728;28;20079;-71
2021/10/04 01:24:25;;;;;;;4.28;1.60;;;;;;;;;;10481444;28;20041;-69
2021/10/04 01:29:48;;;;;;;2.75;1.67;;;;;;;;;;10482634;28;20075;-71
2021/10/04 01:35:11;;;;;;;3.17;1.80;;;;;;;;;;10481512;28;20135;-69
2021/10/04 01:40:38;;;;;;;6.07;1.60;;;;;;;;;;10480843;28;20471;-71
2021/10/04 01:46:01;;;;;;;2.50;1.50;;;;;;;;;;10482808;28;20063;-69
2021/10/04 01:51:24;;;;;;;3.60;1.88;;;;;;;;;;10480339;28;20056;-71
2021/10/04 01:56:48;;;;;;;2.05;1.45;;;;;;;;;;10481552;28;20057;-71
2021/10/04 02:01:51;;;;;;;2.50;1.50;;;;;;;;;;10483834;28;20036;-69
2021/10/04 02:06:54;;;;;;;3.38;1.58;;;;;;;;;;10477371;28;20066;-70
2021/10/04 02:11:58;;;;;;;2.70;1.33;;;;;;;;;;10479029;28;20404;-70
2021/10/04 02:17:01;;;;;;;3.65;1.30;;;;;;;;;;10479668;28;20083;-70
2021/10/04 02:22:04;;;;;;;2.33;1.30;;;;;;;;;;10477976;28;20123;-69
2021/10/04 02:27:08;;;;;;;3.22;1.20;;;;;;;;;;10482713;28;20074;-71
2021/10/04 02:32:11;;;;;;;1.52;0.93;;;;;;;;;;10477775;28;20048;-70
2021/10/04 02:37:14;;;;;;;1.23;0.93;;;;;;;;;;10478173;28;20052;-71
2021/10/04 02:42:18;;;;;;;1.73;1.00;;;;;;;;;;10481685;28;20051;-70
2021/10/04 02:47:21;;;;;;;2.85;1.27;;;;;;;;;;10483932;28;20085;-72
2021/10/04 02:52:24;;;;;;;1.47;0.90;;;;;;;;;;10486916;28;20143;-70
2021/10/04 02:57:28;;;;;;;1.67;1.00;;;;;;;;;;10487773;28;20411;-69
2021/10/04 03:02:31;;;;;;;1.20;0.70;;;;;;;;;;10490518;28;20048;-71
2021/10/04 03:07:34;;;;;;;1.42;0.90;;;;;;;;;;10487180;28;20487;-70
2021/10/04 03:12:38;;;;;;;0.87;0.77;;;;;;;;;;10486110;28;20040;-70
2021/10/04 03:17:41;;;;;;;1.13;0.70;;;;;;;;;;10488117;28;20064;-71
2021/10/04 03:22:44;;;;;;;1.37;0.80;;;;;;;;;;10487475;28;20036;-72
2021/10/04 03:27:48;;;;;;;1.17;0.70;;;;;;;;;;10490043;28;20081;-72
2021/10/04 03:32:51;;;;;;;1.83;0.90;;;;;;;;;;10485870;28;20075;-71
2021/10/04 03:37:54;;;;;;;1.40;0.77;;;;;;;;;;10481388;28;20048;-71
2021/10/04 03:42:58;;;;;;;2.15;0.98;;;;;;;;;;10485562;28;20049;-71
2021/10/04 03:48:01;;;;;;;1.38;0.80;;;;;;;;;;10488323;28;20064;-70
2021/10/04 03:53:03;;;;;;;1.57;0.80;;;;;;;;;;10490047;28;20029;-70
2021/10/04 03:58:08;;;;;;;0.70;0.67;;;;;;;;;;10489155;28;20075;-71
2021/10/04 04:03:10;;;;;;;2.97;1.00;;;;;;;;;;10482386;28;20461;-71
2021/10/04 04:08:13;;;;;;;1.40;0.70;;;;;;;;;;10485563;28;20052;-72
2021/10/04 04:13:17;;;;;;;1.00;0.60;;;;;;;;;;10482217;28;20455;-71
2021/10/04 04:18:20;;;;;;;1.33;0.82;;;;;;;;;;10484457;28;20044;-69
2021/10/04 04:23:23;;;;;;;2.77;0.83;;;;;;;;;;10482324;28;20051;-71
2021/10/04 04:28:27;;;;;;;1.60;1.00;;;;;;;;;;10486334;28;20090;-70
2021/10/04 04:33:50;;;;;;;1.98;0.98;;;;;;;;;;10482640;28;20044;-70
2021/10/04 04:39:13;;;;;;;0.80;0.70;;;;;;;;;;10476951;28;20398;-73
2021/10/04 04:44:37;;;;;;;1.67;0.90;;;;;;;;;;10485158;28;20040;-71
2021/10/04 04:49:41;;;;;;;1.50;0.80;;;;;;;;;;10487498;28;20048;-71
2021/10/04 04:55:04;;;;;;;1.33;0.88;;;;;;;;;;10483470;28;20052;-71
2021/10/04 05:00:28;;;;;;;1.40;1.03;;;;;;;;;;10479899;28;20041;-72
2021/10/04 05:05:51;;;;;;;3.63;1.13;;;;;;;;;;10479347;28;20326;-70
2021/10/04 05:11:14;;;;;;;2.60;1.10;;;;;;;;;;10485591;28;20049;-69
2021/10/04 05:16:38;;;;;;;1.73;1.00;;;;;;;;;;10480440;28;20368;-74
2021/10/04 05:22:01;;;;;;;2.13;0.90;;;;;;;;;;10481568;28;20195;-73
2021/10/04 05:27:24;;;;;;;1.25;0.90;;;;;;;;;;10485496;28;20059;-73
2021/10/04 05:32:48;;;;;;;1.52;1.00;;;;;;;;;;10481451;28;20044;-72
2021/10/04 05:38:11;;;;;;;2.10;1.10;;;;;;;;;;10479356;28;20048;-74
2021/10/04 05:43:33;;;;;;;3.20;1.55;;;;;;;;;;10484016;28;20052;-73
2021/10/04 05:48:56;;;;;;;3.17;0.93;;;;;;;;;;10477802;28;20128;-73
2021/10/04 05:54:20;;;;;;;3.70;1.23;;;;;;;;;;10479024;28;20036;-74
2021/10/04 05:59:41;;;;;;;;;;;;;;;;;;10484154;28;20044;-73
2021/10/04 06:05:04;;;;;;;1.65;1.02;;;;;;;;;;10477489;28;20007;-73
2021/10/04 06:10:25;;;;;;;1.70;0.90;;;;;;;;;;10481859;28;20654;-74
2021/10/04 06:15:46;;;;;;;2.53;1.15;;;;;;;;;;10481642;28;20036;-73
2021/10/04 06:21:09;;;;;;;2.03;1.17;;;;;;;;;;10477292;28;20078;-74
2021/10/04 06:26:31;;;;;;;1.83;1.05;;;;;;;;;;10456993;28;20053;-74
2021/10/04 06:31:53;;;;;;;3.90;1.40;;;;;;;;;;10463749;28;20214;-73
2021/10/04 06:37:00;;;;;;;2.03;1.23;;;;;;;;;;10460091;28;20032;-72
2021/10/04 06:42:04;;;;;;;1.27;1.00;;;;;;;;;;10475005;28;20176;-73
2021/10/04 06:47:06;;;;;;;3.17;1.10;;;;;;;;;;10475442;28;20040;-74
2021/10/04 06:52:11;;;;;;;1.88;1.00;;;;;;;;;;10469749;28;20115;-74
2021/10/04 06:57:14;;;;;;;3.83;1.30;;;;;;;;;;10462432;28;20092;-71
2021/10/04 07:02:16;;;;;;;4.43;1.35;;;;;;;;;;10460388;28;20199;-69
2021/10/04 07:07:21;;;;;;;2.95;1.27;;;;;;;;;;10471037;28;20032;-70
2021/10/04 07:12:24;;;;;;;1.88;1.10;;;;;;;;;;10480426;28;20405;-71
2021/10/04 07:17:26;;;;;;;3.58;1.30;;;;;;;;;;10463808;28;20212;-70
2021/10/04 07:22:30;;;;;;;3.70;1.40;;;;;;;;;;10475637;28;20136;-71
2021/10/04 07:27:33;;;;;;;2.03;1.40;;;;;;;;;;10470457;28;20412;-69
2021/10/04 07:32:36;;;;;;;1.80;1.27;;;;;;;;;;10480698;28;20672;-68
2021/10/04 07:37:40;;;;;;;2.60;1.40;;;;;;;;;;10480684;28;20113;-70
2021/10/04 07:42:46;;;;;;;2.67;1.50;;;;;;;;;;10479939;28;20076;-70
2021/10/04 07:47:49;;;;;;;;;;;;;;;;;;10478421;28;20068;-68
2021/10/04 07:52:53;;;;;;;2.38;1.30;;;;;;;;;;10482943;28;19928;-68
2021/10/04 07:57:56;;;;;;;2.35;1.20;;;;;;;;;;10480151;28;20688;-68
2021/10/04 08:02:59;;;;;;;2.25;1.40;;;;;;;;;;10478620;28;20052;-69
2021/10/04 08:08:03;;;;;;;2.13;1.40;;;;;;;;;;10477368;28;20033;-69
2021/10/04 08:13:06;;;;;;;3.42;1.50;;;;;;;;;;10483537;28;20060;-67
2021/10/04 08:18:09;;;;;;;4.47;1.48;;;;;;;;;;10482764;28;20094;-69
2021/10/04 08:23:14;;;;;;;6.47;2.60;;;;;;;;;;10485124;28;20136;-71
2021/10/04 08:28:16;;;;;;;2.75;1.20;;;;;;;;;;10484795;28;20095;-71
2021/10/04 08:33:19;;;;;;;1.92;0.98;;;;;;;;;;10480630;28;20427;-71
2021/10/04 08:38:23;;;;;;;1.67;1.27;;;;;;;;;;10481993;28;20037;-71
2021/10/04 08:43:26;;;;;;;2.20;1.40;;;;;;;;;;10482943;28;20514;-70
2021/10/04 08:48:29;;;;;;;7.10;3.13;;;;;;;;;;10479446;28;20068;-68
2021/10/04 08:53:33;;;;;;;3.08;1.40;;;;;;;;;;10479625;28;20037;-70
2021/10/04 08:58:36;;;;;;;1.25;1.10;;;;;;;;;;10472904;28;20128;-70
2021/10/04 09:03:39;;;;;;;;;;;;;;;;;;10484548;28;20060;-70
2021/10/04 09:08:52;;;;;;;1.88;1.20;;;;;;;;;;10481719;28;20057;-67
2021/10/04 09:13:54;;;;;;;3.80;1.48;;;;;;;;;;10474178;28;20515;-70
2021/10/04 09:19:16;;;;;;;3.33;1.20;;;;;;;;;;10483373;28;20056;-70
2021/10/04 09:24:20;;;;;;;2.17;1.30;;;;;;;;;;10475774;28;20060;-70
2021/10/04 09:29:24;;;;;;;3.05;1.50;;;;;;;;;;10485358;28;20051;-69
2021/10/04 09:34:27;;;;;;;2.30;1.42;;;;;;;;;;10480138;28;20556;-70
2021/10/04 09:39:32;;;;;;;2.17;1.40;;;;;;;;;;10482501;28;20037;-70
2021/10/04 09:44:42;;;;;;;2.22;1.52;;;;;;;;;;10480638;28;20055;-69
2021/10/04 09:49:49;;;;;;;3.42;1.30;;;;;;;;;;10483298;28;20052;-70
2021/10/04 09:54:59;;;;;;;3.13;1.50;;;;;;;;;;10476016;28;20068;-69
2021/10/04 10:00:01;;;;;;;2.45;1.45;;;;;;;;;;10482787;28;20040;-70
2021/10/04 10:05:06;;;;;;;2.27;1.43;;;;;;;;;;10477624;28;20037;-70
2021/10/04 10:10:11;;;;;;;2.15;1.27;;;;;;;;;;10479866;28;20071;-70
2021/10/04 10:15:18;;;;;;;5.90;1.65;;;;;;;;;;10477607;28;20052;-70
2021/10/04 10:20:23;;;;;;;2.83;1.45;;;;;;;;;;10480712;28;20052;-70
2021/10/04 10:25:31;;;;;;;3.15;1.20;;;;;;;;;;10480534;28;20060;-70
2021/10/04 10:30:34;;;;;;;2.05;1.33;;;;;;;;;;10476863;28;20051;-72
2021/10/04 10:35:48;;;;;;;2.63;1.45;;;;;;;;;;10483245;28;20059;-71
2021/10/04 10:41:09;;;;;;;2.40;1.50;;;;;;;;;;10479190;28;20683;-72
2021/10/04 10:46:33;;;;;;;2.58;1.30;;;;;;;;;;10481786;28;20037;-70
2021/10/04 10:51:36;;;;;;;6.72;1.80;;;;;;;;;;10473898;28;20059;-71
2021/10/04 10:56:52;;;;;;;4.30;1.60;;;;;;;;;;10477639;28;20132;-67
2021/10/04 11:01:57;;;;;;;3.88;1.40;;;;;;;;;;10478806;28;20386;-67
2021/10/04 11:06:59;;;;;;;2.35;1.38;;;;;;;;;;10483919;28;20041;-66
2021/10/04 11:12:02;;;;;;;2.23;1.23;;;;;;;;;;10481954;28;20055;-66
2021/10/04 11:17:06;;;;;;;2.88;1.65;;;;;;;;;;10474796;28;20566;-65
2021/10/04 11:22:20;;;;;;;2.25;1.55;;;;;;;;;;10472581;28;20044;-66
2021/10/04 11:27:23;;;;;;;1.73;1.40;;;;;;;;;;10466287;28;20424;-67
2021/10/04 11:32:27;;;;;;;1.97;1.20;;;;;;;;;;10482025;28;20138;-68
2021/10/04 11:37:30;;;;;;;1.30;1.05;;;;;;;;;;10481554;28;20048;-67
2021/10/04 11:42:33;;;;;;;2.08;1.15;;;;;;;;;;10484491;28;20045;-64
2021/10/04 11:47:41;;;;;;;2.27;1.40;;;;;;;;;;10468489;28;20087;-66
2021/10/04 11:52:45;;;;;;;3.45;1.35;;;;;;;;;;10482004;28;20052;-67
2021/10/04 11:57:48;;;;;;;1.30;1.20;;;;;;;;;;10484580;28;20106;-68
2021/10/04 12:02:54;;;;;;;1.70;1.20;;;;;;;;;;10487466;28;20049;-67
2021/10/04 12:07:57;;;;;;;2.00;1.20;;;;;;;;;;10486777;28;20071;-64
2021/10/04 12:13:01;;;;;;;1.65;1.10;;;;;;;;;;10481294;28;20050;-66
2021/10/04 12:18:05;;;;;;;2.53;1.17;;;;;;;;;;10486307;28;20040;-67
2021/10/04 12:23:15;;;;;;;2.03;1.17;;;;;;;;;;10485977;28;20076;-67
2021/10/04 12:28:19;;;;;;;3.35;2.05;;;;;;;;;;10481055;28;20110;-69
2021/10/04 12:33:43;;;;;;;5.07;1.30;;;;;;;;;;10479840;28;20044;-68
2021/10/04 12:38:53;;;;;;;1.30;1.00;;;;;;;;;;10486460;28;20202;-65
2021/10/04 12:43:55;;;;;;;2.80;1.40;;;;;;;;;;10483493;28;20049;-67
2021/10/04 12:49:03;;;;;;;1.67;1.10;;;;;;;;;;10465546;28;20449;-65
2021/10/04 12:54:09;;;;;;;2.95;1.42;;;;;;;;;;10466797;28;20037;-66
2021/10/04 12:59:12;;;;;;;1.20;1.02;;;;;;;;;;10476267;28;20044;-67
2021/10/04 13:04:18;;;;;;;1.30;0.95;;;;;;;;;;10476772;28;20047;-68
2021/10/04 13:09:21;;;;;;;1.35;1.00;;;;;;;;;;10486396;28;20033;-67
2021/10/04 13:14:24;;;;;;;3.40;1.10;;;;;;;;;;10474762;28;20400;-67
2021/10/04 13:19:28;;;;;;;3.53;1.48;;;;;;;;;;10477334;28;20381;-65
2021/10/04 13:24:31;;;;;;;1.55;0.93;;;;;;;;;;10478311;28;20045;-67
2021/10/04 13:29:34;;;;;;;1.03;0.70;;;;;;;;;;10467578;28;20058;-68
2021/10/04 13:34:38;;;;;;;1.63;0.80;;;;;;;;;;10474199;28;20144;-66
2021/10/04 13:39:41;;;;;;;0.80;0.60;;;;;;;;;;10467540;28;20047;-68
2021/10/04 13:44:45;;;;;;;1.02;0.80;;;;;;;;;;10476372;28;20405;-67
2021/10/04 13:49:49;;;;;;;1.50;1.00;;;;;;;;;;10482261;28;20064;-68
2021/10/04 13:54:52;;;;;;;2.75;1.20;;;;;;;;;;10483182;28;20504;-68
2021/10/04 13:59:55;;;;;;;2.10;1.00;;;;;;;;;;10483130;28;20040;-67
2021/10/04 14:05:00;;;;;;;1.33;1.00;;;;;;;;;;10471722;28;20389;-68
2021/10/04 14:10:05;;;;;;;1.10;0.88;;;;;;;;;;10484770;28;20035;-67
2021/10/04 14:15:08;;;;;;;1.75;1.02;;;;;;;;;;10467824;28;20037;-68
2021/10/04 14:20:11;;;;;;;;;;;;;;;;;;10478971;28;20036;-66
2021/10/04 14:25:17;;;;;;;2.13;1.27;;;;;;;;;;10480181;28;20361;-67
2021/10/04 14:30:20;;;;;;;2.05;0.82;;;;;;;;;;10474940;28;20033;-68
2021/10/04 14:35:43;;;;;;;2.28;0.95;;;;;;;;;;10478187;28;20144;-68
2021/10/04 14:40:47;;;;;;;1.10;1.00;;;;;;;;;;10487265;28;20088;-68
2021/10/04 14:45:50;;;;;;;2.15;1.17;;;;;;;;;;10488049;28;20328;-68
2021/10/04 14:50:53;;;;;;;1.00;0.90;;;;;;;;;;10487617;28;20045;-68
2021/10/04 14:55:57;;;;;;;2.90;1.80;;;;;;;;;;10474715;28;20110;-67
2021/10/04 15:01:01;;;;;;;2.50;1.05;;;;;;;;;;10484168;28;20113;-66
2021/10/04 15:06:04;;;;;;;0.98;0.95;;;;;;;;;;10478885;28;20059;-66
2021/10/04 15:11:08;;;;;;;3.17;0.97;;;;;;;;;;10473012;28;20040;-66
2021/10/04 15:16:11;;;;;;;1.05;0.93;;;;;;;;;;10485464;28;20079;-68
2021/10/04 15:21:14;;;;;;;3.50;0.98;;;;;;;;;;10480602;28;20048;-66
2021/10/04 15:26:19;;;;;;;1.70;1.15;;;;;;;;;;10481450;28;20029;-66
2021/10/04 15:31:22;;;;;;;2.15;1.40;;;;;;;;;;10477115;28;20048;-65
2021/10/04 15:36:25;;;;;;;1.40;1.23;;;;;;;;;;10480090;28;20044;-66
2021/10/04 15:41:29;;;;;;;4.53;1.37;;;;;;;;;;10484423;28;20095;-66
2021/10/04 15:46:32;;;;;;;2.50;1.77;;;;;;;;;;10487973;28;20090;-68
2021/10/04 15:51:35;;;;;;;8.80;2.50;;;;;;;;;;10483663;28;20082;-66
2021/10/04 15:56:39;;;;;;;2.43;1.50;;;;;;;;;;10486711;28;20131;-67
2021/10/04 16:01:42;;;;;;;6.40;1.63;;;;;;;;;;10486043;28;20059;-66
2021/10/04 16:06:45;;;;;;;2.70;1.55;;;;;;;;;;10489072;28;20132;-67
2021/10/04 16:11:49;;;;;;;7.67;3.77;;;;;;;;;;10490707;28;20116;-68
2021/10/04 16:16:52;;;;;;;4.35;2.35;;;;;;;;;;10479754;28;20060;-67
2021/10/04 16:21:55;;;;;;;3.28;1.60;;;;;;;;;;10479327;28;20056;-67
2021/10/04 16:27:00;;;;;;;2.55;1.50;;;;;;;;;;10478234;28;20041;-68
2021/10/04 16:32:03;;;;;;;3.65;1.73;;;;;;;;;;10484242;28;20497;-66
2021/10/04 16:37:06;;;;;;;4.88;1.70;;;;;;;;;;10475094;28;20047;-69
2021/10/04 16:42:10;;;;;;;3.65;1.90;;;;;;;;;;10481287;28;20661;-67
2021/10/04 16:47:13;;;;;;;3.00;1.67;;;;;;;;;;10483552;28;20036;-68
2021/10/04 16:52:16;;;;;;;4.88;1.50;;;;;;;;;;10479724;28;20068;-67
2021/10/04 16:57:20;;;;;;;3.97;2.53;;;;;;;;;;10475805;28;20062;-68
2021/10/04 17:02:23;;;;;;;3.17;1.70;;;;;;;;;;10483380;28;20045;-67
2021/10/04 17:07:26;;;;;;;2.70;1.70;;;;;;;;;;10484787;28;20101;-67
2021/10/04 17:12:30;;;;;;;3.50;1.50;;;;;;;;;;10485071;28;20076;-67
2021/10/04 17:17:33;;;;;;;2.60;1.52;;;;;;;;;;10483277;28;20999;-67
2021/10/04 17:22:36;;;;;;;4.20;1.67;;;;;;;;;;10485277;28;20036;-66
2021/10/04 17:27:42;;;;;;;5.38;1.73;;;;;;;;;;10485197;28;20054;-66
2021/10/04 17:32:45;;;;;;;5.93;2.10;;;;;;;;;;10480772;28;20044;-67
2021/10/04 17:37:49;;;;;;;4.35;2.15;;;;;;;;;;10474147;28;20044;-67
2021/10/04 17:42:54;;;;;;;3.85;1.95;;;;;;;;;;10474367;28;20166;-67
2021/10/04 17:47:57;;;;;;;6.05;1.88;;;;;;;;;;10482075;28;20608;-65
2021/10/04 17:52:59;;;;;;;3.97;2.10;;;;;;;;;;10475750;28;20565;-67
2021/10/04 17:58:04;;;;;;;2.93;1.67;;;;;;;;;;10476060;28;20049;-66
2021/10/04 18:03:07;;;;;;;4.10;1.80;;;;;;;;;;10477562;28;20128;-67
2021/10/04 18:08:10;;;;;;;3.93;1.77;;;;;;;;;;10481217;28;20495;-68
2021/10/04 18:13:14;;;;;;;4.60;1.90;;;;;;;;;;10475163;28;20441;-68
2021/10/04 18:18:17;;;;;;;4.90;2.72;;;;;;;;;;10463539;28;20072;-66
2021/10/04 18:23:20;;;;;;;4.30;2.38;;;;;;;;;;10468923;28;20439;-68
2021/10/04 18:28:24;;;;;;;5.57;2.30;;;;;;;;;;10451102;28;20044;-68
2021/10/04 18:33:27;;;;;;;3.13;1.90;;;;;;;;;;10460909;28;20368;-66
2021/10/04 18:38:30;;;;;;;2.75;1.88;;;;;;;;;;10466246;28;20127;-66
2021/10/04 18:43:34;;;;;;;5.47;2.23;;;;;;;;;;10476299;28;20041;-64
2021/10/04 18:48:42;;;;;;;4.07;2.25;;;;;;;;;;10476534;28;20189;-67
2021/10/04 18:53:45;;;;;;;5.68;3.17;;;;;;;;;;10473365;28;20054;-68
2021/10/04 18:58:49;;;;;;;7.07;2.65;;;;;;;;;;10474840;28;20482;-68
2021/10/04 19:03:52;;;;;;;4.32;2.33;;;;;;;;;;10473770;28;20048;-67
2021/10/04 19:08:55;;;;;;;4.33;2.80;;;;;;;;;;10469102;28;20052;-68
2021/10/04 19:13:59;;;;;;;3.27;1.90;;;;;;;;;;10462480;28;20040;-67
2021/10/04 19:19:02;;;;;;;3.95;2.20;;;;;;;;;;10455297;28;20053;-68
2021/10/04 19:24:05;;;;;;;6.43;2.50;;;;;;;;;;10473857;28;20527;-68
2021/10/04 19:29:09;;;;;;;6.47;2.70;;;;;;;;;;10489370;28;20033;-68
2021/10/04 19:34:12;;;;;;;5.43;3.00;;;;;;;;;;10479606;28;20618;-68
2021/10/04 19:39:15;;;;;;;15.20;4.80;;;;;;;;;;10477432;28;20040;-68
2021/10/04 19:44:19;;;;;;;8.38;4.85;;;;;;;;;;10471057;28;20060;-67
2021/10/04 19:49:22;;;;;;;6.43;2.80;;;;;;;;;;10472235;28;20611;-68
2021/10/04 19:54:32;;;;;;;4.83;2.90;;;;;;;;;;10478980;28;20036;-74
2021/10/04 19:59:36;;;;;;;6.93;3.10;;;;;;;;;;10464991;28;20112;-71
2021/10/04 20:04:39;;;;;;;5.40;3.05;;;;;;;;;;10494052;28;20123;-72
2021/10/04 20:09:43;;;;;;;5.10;3.10;;;;;;;;;;10482915;28;20788;-71
2021/10/04 20:14:48;;;;;;;6.97;3.25;;;;;;;;;;10486024;28;20056;-71
2021/10/04 20:19:50;;;;;;;5.32;3.10;;;;;;;;;;10483874;28;20114;-72
2021/10/04 20:24:59;;;;;;;6.40;3.30;;;;;;;;;;10474688;28;20047;-69
2021/10/04 20:30:04;;;;;;;6.13;3.30;;;;;;;;;;10479379;28;20465;-69
2021/10/04 20:35:07;;;;;;;7.28;3.90;;;;;;;;;;10481435;28;20616;-69
2021/10/04 20:40:11;;;;;;;13.68;4.18;;;;;;;;;;10474970;28;20068;-70
2021/10/04 20:45:15;;;;;;;6.75;3.80;;;;;;;;;;10474298;28;20048;-69
2021/10/04 20:50:18;;;;;;;6.57;3.85;;;;;;;;;;10480306;28;20143;-69
2021/10/04 20:55:21;;;;;;;9.37;4.80;;;;;;;;;;10485172;28;20122;-70
2021/10/04 21:00:26;;;;;;;11.40;4.50;;;;;;;;;;10483865;28;20045;-70
2021/10/04 21:05:33;;;;;;;8.32;4.90;;;;;;;;;;10484472;28;20070;-70
2021/10/04 21:10:36;;;;;;;9.07;5.18;;;;;;;;;;10484956;28;20110;-71
2021/10/04 21:15:40;;;;;;;8.75;4.80;;;;;;;;;;10483282;28;20094;-70
2021/10/04 21:20:52;;;;;;;12.20;4.68;;;;;;;;;;10479576;28;20036;-71
2021/10/04 21:25:55;;;;;;;8.97;4.90;;;;;;;;;;10482053;28;20048;-71
2021/10/04 21:31:03;;;;;;;11.07;5.82;;;;;;;;;;10484332;28;20138;-69
2021/10/04 21:36:06;;;;;;;12.05;5.78;;;;;;;;;;10482431;28;20044;-70
2021/10/04 21:41:27;;;;;;;12.32;5.28;;;;;;;;;;10481796;28;20028;-70
2021/10/04 21:46:32;;;;;;;10.77;5.43;;;;;;;;;;10481728;28;20049;-71
2021/10/04 21:51:35;;;;;;;9.65;5.25;;;;;;;;;;10481449;28;20075;-71
2021/10/04 21:56:38;;;;;;;11.98;6.53;;;;;;;;;;10488527;28;20423;-69
2021/10/04 22:01:49;;;;;;;13.50;6.65;;;;;;;;;;10484576;28;20537;-70
2021/10/04 22:07:08;;;;;;;11.30;5.78;;;;;;;;;;10482989;28;20044;-70
2021/10/04 22:12:11;;;;;;;12.27;5.65;;;;;;;;;;10480473;28;20134;-69
2021/10/04 22:17:16;;;;;;;10.75;6.20;;;;;;;;;;10481034;28;20041;-70
2021/10/04 22:22:18;;;;;;;13.50;5.85;;;;;;;;;;10480558;28;20043;-70
2021/10/04 22:27:22;;;;;;;11.43;5.78;;;;;;;;;;10484128;28;20045;-70
2021/10/04 22:32:26;;;;;;;16.48;6.80;;;;;;;;;;10476431;28;20504;-71
2021/10/04 22:37:29;;;;;;;12.50;5.80;;;;;;;;;;10482237;28;20077;-69
2021/10/04 22:42:32;;;;;;;13.30;5.93;;;;;;;;;;10479367;28;20055;-70
2021/10/04 22:47:36;;;;;;;15.30;6.37;;;;;;;;;;10481268;28;20134;-70
2021/10/04 22:52:39;;;;;;;13.20;6.43;;;;;;;;;;10483623;28;20460;-70
2021/10/04 22:57:42;;;;;;;15.63;6.80;;;;;;;;;;10478900;28;20078;-70
2021/10/04 23:02:46;;;;;;;15.75;6.68;;;;;;;;;;10483235;28;20054;-70
2021/10/04 23:07:49;;;;;;;12.13;6.07;;;;;;;;;;10485104;28;20048;-71
2021/10/04 23:12:52;;;;;;;12.93;5.88;;;;;;;;;;10488430;28;20056;-69
2021/10/04 23:17:57;;;;;;;11.15;5.40;;;;;;;;;;10486173;28;20052;-71
2021/10/04 23:22:59;;;;;;;10.80;5.55;;;;;;;;;;10490462;28;20098;-71
2021/10/04 23:28:02;;;;;;;9.87;5.50;;;;;;;;;;10489375;28;20048;-69
2021/10/04 23:33:06;;;;;;;10.83;5.07;;;;;;;;;;10490049;28;20037;-69
2021/10/04 23:38:09;;;;;;;11.45;5.20;;;;;;;;;;10488908;28;20075;-70
2021/10/04 23:43:12;;;;;;;10.00;4.68;;;;;;;;;;10490037;28;20070;-70
2021/10/04 23:48:17;;;;;;;8.27;4.27;;;;;;;;;;10487224;28;20348;-71
2021/10/04 23:53:20;;;;;;;8.98;4.63;;;;;;;;;;10487541;28;20441;-70
2021/10/04 23:58:23;;;;;;;9.87;4.30;;;;;;;;;;10488582;28;20084;-71
